TimeMST,TemperatureF,Dew PointF,Humidity,Sea Level PressureIn,VisibilityMPH,Wind Direction,Wind SpeedMPH,Gust SpeedMPH,PrecipitationIn,Events,Conditions,WindDirDegrees,DateUTC
12:57 AM,48.0,28.0,46,29.70,10.0,WSW,6.9,-,N/A,,Clear,250,2013-10-09 07:57:00
1:57 AM,45.0,28.0,52,29.71,10.0,WSW,3.5,-,N/A,,Clear,250,2013-10-09 08:57:00
2:57 AM,44.1,28.0,53,29.69,10.0,SW,6.9,-,N/A,,Clear,220,2013-10-09 09:57:00
3:57 AM,46.9,27.0,46,29.66,10.0,SSW,15.0,26.5,N/A,,Clear,210,2013-10-09 10:57:00
4:57 AM,46.0,26.1,46,29.66,10.0,SSW,15.0,21.9,N/A,,Clear,210,2013-10-09 11:57:00
6:57 AM,46.0,26.1,46,29.69,10.0,SSW,20.7,28.8,N/A,,Clear,200,2013-10-09 13:57:00
7:57 AM,48.9,26.1,41,29.70,10.0,SSW,15.0,27.6,N/A,,Clear,200,2013-10-09 14:57:00
8:57 AM,52.0,24.1,34,29.68,10.0,SSW,20.7,41.4,N/A,,Clear,200,2013-10-09 15:57:00
9:57 AM,53.1,21.0,29,29.68,10.0,SSW,28.8,36.8,N/A,,Clear,200,2013-10-09 16:57:00
10:57 AM,54.0,21.0,28,29.68,10.0,SSW,29.9,42.6,N/A,,Clear,200,2013-10-09 17:57:00
11:57 AM,55.9,23.0,28,29.66,10.0,SSW,27.6,43.7,N/A,,Clear,200,2013-10-09 18:57:00
12:57 PM,57.9,21.9,25,29.63,10.0,SSW,28.8,41.4,N/A,,Clear,200,2013-10-09 19:57:00
1:57 PM,55.9,23.0,28,29.62,10.0,SSW,31.1,42.6,N/A,,Clear,210,2013-10-09 20:57:00
2:57 PM,55.0,25.0,31,29.64,10.0,SSW,23.0,39.1,N/A,,Clear,200,2013-10-09 21:57:00
3:57 PM,54.0,28.9,38,29.63,10.0,SSW,19.6,29.9,N/A,,Scattered Clouds,200,2013-10-09 22:57:00
4:57 PM,52.0,35.1,53,29.64,10.0,South,16.1,26.5,N/A,,Partly Cloudy,190,2013-10-09 23:57:00
5:57 PM,50.0,39.0,66,29.67,10.0,South,11.5,20.7,N/A,,Scattered Clouds,190,2013-10-10 00:57:00
6:57 PM,48.9,37.9,66,29.65,10.0,SSW,9.2,26.5,N/A,,Mostly Cloudy,200,2013-10-10 01:57:00
7:57 PM,48.9,37.9,66,29.65,10.0,SSW,17.3,24.2,N/A,,Mostly Cloudy,210,2013-10-10 02:57:00
8:57 PM,46.9,36.0,66,29.65,10.0,SSW,10.4,-,N/A,,Overcast,200,2013-10-10 03:57:00
9:57 PM,46.9,36.0,66,29.64,10.0,South,11.5,16.1,N/A,,Overcast,190,2013-10-10 04:57:00
10:57 PM,46.0,35.1,66,29.64,10.0,South,18.4,26.5,N/A,,Overcast,190,2013-10-10 05:57:00
11:57 PM,45.0,33.1,63,29.62,10.0,SSW,18.4,25.3,N/A,,Overcast,210,2013-10-10 06:57:00